Date,TemperatureHighF,TemperatureAvgF,TemperatureLowF,DewpointHighF,DewpointAvgF,DewpointLowF,HumidityHigh,HumidityAvg,HumidityLow,PressureMaxIn,PressureMinIn,WindSpeedMaxMPH,WindSpeedAvgMPH,GustSpeedMaxMPH,PrecipitationSumIn
2013-9-1,83.3,77.8,74.4,75.0,73.2,72.0,93,86,71,29.81,29.75,9,4,12,0.00
2013-9-2,81.4,76.5,74.6,75.0,73.7,70.0,96,91,81,29.76,29.66,8,2,9,0.04
2013-9-3,80.0,75.0,70.5,73.0,66.3,57.0,97,77,50,29.84,29.66,13,5,18,0.11
2013-9-4,80.1,73.1,66.3,63.0,58.9,53.0,80,62,44,29.95,29.83,15,8,21,0.00
2013-9-5,75.4,72.1,63.5,62.0,55.0,44.0,72,56,34,30.10,29.87,12,7,19,0.00
2013-9-6,70.3,63.2,55.3,52.0,46.2,42.0,73,55,37,30.21,30.08,14,5,15,0.00
2013-9-7,77.3,69.2,62.5,60.0,52.8,46.0,70,57,36,30.07,29.85,13,6,13,0.00
2013-9-8,79.5,72.8,64.5,65.0,56.5,45.0,71,58,33,30.03,29.77,16,8,21,0.00
2013-9-9,70.3,64.9,57.6,62.0,52.3,46.0,78,65,48,30.20,30.03,14,6,19,0.00
2013-9-10,82.0,75.0,69.3,73.0,68.8,62.0,87,81,73,30.11,30.00,19,8,20,0.00
2013-9-11,90.3,81.8,75.7,77.0,73.8,73.0,90,77,63,30.06,29.93,11,5,16,0.00
2013-9-12,82.6,76.4,70.1,74.0,71.5,68.0,95,85,73,29.94,29.63,14,4,30,0.98
2013-9-13,74.8,69.4,60.7,69.0,61.5,52.0,91,77,58,29.79,29.58,16,7,19,0.05
2013-9-14,65.7,60.4,55.4,52.0,49.3,47.0,78,67,55,30.07,29.79,16,7,17,0.00
2013-9-15,72.4,62.6,54.1,59.0,49.5,43.0,80,64,36,30.17,30.03,12,4,15,0.00
2013-9-16,70.6,65.5,59.2,59.0,55.6,48.0,85,71,51,30.19,29.98,13,6,23,0.01
2013-9-17,63.5,56.7,49.5,49.0,42.4,38.0,71,60,48,30.39,30.20,19,7,27,0.00
2013-9-18,70.7,62.1,54.7,56.0,48.3,42.0,78,62,39,30.30,30.14,11,4,16,0.00
2013-9-19,75.5,65.7,58.5,60.0,53.0,47.0,82,65,41,30.14,30.02,11,4,13,0.00
2013-9-20,76.3,68.5,62.8,62.0,58.9,56.0,86,73,53,30.04,29.96,8,4,14,0.00
2013-9-21,74.4,68.6,62.0,69.0,64.4,59.0,93,86,77,29.97,29.62,16,5,21,0.15
2013-9-22,69.9,63.8,56.4,68.0,53.4,44.0,94,71,51,29.86,29.60,18,9,26,0.93
2013-9-23,65.2,57.8,51.1,48.0,44.3,41.0,77,62,47,30.00,29.86,13,6,18,0.00
2013-9-24,72.1,59.6,49.3,50.0,46.0,43.0,84,63,40,30.01,29.82,11,5,15,0.00
2013-9-25,71.1,62.5,53.9,57.0,48.2,45.0,87,61,42,29.91,29.82,11,3,16,0.00
2013-9-26,67.2,62.2,58.9,58.0,55.9,53.0,88,80,68,30.05,29.89,12,4,19,0.00
2013-9-27,64.7,60.8,55.4,56.0,53.6,51.0,91,78,66,30.22,30.05,10,4,15,0.00
2013-9-28,71.5,64.0,55.1,56.0,54.5,52.0,89,72,52,30.27,30.19,10,4,13,0.00
2013-9-29,68.6,62.5,58.1,59.0,56.3,52.0,93,81,57,30.19,30.04,12,3,14,0.00
2013-9-30,71.2,63.0,55.4,59.0,55.0,52.0,94,76,52,30.04,29.92,9,3,10,0.00